Time;durP1;ratioP1;P1;durP2;ratioP2;P2;SDS_P1;SDS_P2;PMS_P1;PMS_P2;Temp;Humidity;BMP_temperature;BMP_pressure;BME280_temperature;BME280_humidity;BME280_pressure;Samples;Min_cycle;Max_cycle;Signal;HPM_P1;HPM_P2
2021/03/22 00:00:47;;;;;;;;;;;;;;;3.53;81.08;102107.66;5054674;28;2114;-73
2021/03/22 00:03:13;;;;;;;;;;;;;;;3.53;80.64;102110.41;5055504;28;1412;-73
2021/03/22 00:05:39;;;;;;;;;;;;;;;3.53;81.09;102107.66;5055054;28;984;-73
2021/03/22 00:08:05;;;;;;;;;;;;;;;3.54;81.16;102108.47;5037023;28;1361;-73
2021/03/22 00:10:32;;;;;;;;;;;;;;;3.51;81.32;102114.47;5055008;28;892;-72
2021/03/22 00:12:59;;;;;;;;;;;;;;;3.51;80.83;102117.19;5054798;28;1973;-73
2021/03/22 00:15:25;;;;;;;;;;;;;;;3.49;80.83;102120.19;5054637;28;2119;-73
2021/03/22 00:17:52;;;;;;;;;;;;;;;3.47;81.09;102110.63;5054760;28;1931;-73
2021/03/22 00:20:18;;;;;;;;;;;;;;;3.48;81.52;102115.84;5054649;28;1262;-73
2021/03/22 00:22:43;;;;;;;;;;;;;;;3.47;81.54;102116.09;5055019;28;916;-73
2021/03/22 00:25:10;;;;;;;;;;;;;;;3.41;82.08;102126.19;5055287;28;814;-73
2021/03/22 00:27:36;;;;;;;;;;;;;;;3.38;82.25;102115.78;5055253;28;2132;-73
2021/03/22 00:30:02;;;;;;;;;;;;;;;3.34;82.62;102114.63;5055790;28;1266;-73
2021/03/22 00:32:27;;;;;;;;;;;;;;;3.29;82.81;102115.44;5055183;28;2138;-73
2021/03/22 00:34:52;;;;;;;;;;;;;;;3.27;82.64;102114.06;5058353;28;798;-73
2021/03/22 00:37:18;;;;;;;;;;;;;;;3.19;83.15;102112.66;5056931;28;1961;-73
2021/03/22 00:39:43;;;;;;;;;;;;;;;3.13;83.47;102103.63;5054852;28;1278;-73
2021/03/22 00:42:09;;;;;;;;;;;;;;;3.16;83.81;102103.06;5054658;28;2149;-73
2021/03/22 00:44:35;;;;;;;;;;;;;;;3.14;83.67;102102.50;5055288;28;1026;-73
2021/03/22 00:47:00;;;;;;;;;;;;;;;3.10;84.29;102104.13;5054299;28;2104;-73
2021/03/22 00:49:26;;;;;;;;;;;;;;;3.05;84.21;102104.09;5054977;28;1290;-73
2021/03/22 00:51:51;;;;;;;;;;;;;;;3.07;84.25;102093.72;5037302;28;1035;-73
2021/03/22 00:54:16;;;;;;;;;;;;;;;3.07;84.48;102101.91;5054132;28;2051;-73
2021/03/22 00:56:41;;;;;;;;;;;;;;;3.11;84.91;102085.84;5054711;28;1902;-73
2021/03/22 00:59:07;;;;;;;;;;;;;;;3.12;84.88;102091.03;5054052;28;2232;-73
2021/03/22 01:01:33;;;;;;;;;;;;;;;3.07;84.63;102095.66;5053983;28;2006;-73
2021/03/22 01:03:58;;;;;;;;;;;;;;;3.12;84.62;102077.41;5053985;28;2018;-73
2021/03/22 01:06:24;;;;;;;;;;;;;;;3.12;85.41;102082.03;5054690;28;938;-73
2021/03/22 01:08:49;;;;;;;;;;;;;;;3.15;85.18;102082.34;5054524;28;1373;-73
2021/03/22 01:11:18;;;;;;;;;;;;;;;3.16;84.93;102083.16;5054904;28;793;-73
2021/03/22 01:13:56;;;;;;;;;;;;;;;3.24;84.60;102082.66;5054371;28;1118;-72
2021/03/22 01:16:26;;;;;;;;;;;;;;;3.29;84.97;102073.69;5053952;28;2010;-73
2021/03/22 01:18:54;;;;;;;;;;;;;;;3.30;85.65;102073.41;5053825;28;2017;-73
2021/03/22 01:21:28;;;;;;;;;;;;;;;3.33;85.48;102080.25;5055821;28;933;-73
2021/03/22 01:23:54;;;;;;;;;;;;;;;3.37;85.99;102073.16;5055399;28;1012;-73
2021/03/22 01:26:24;;;;;;;;;;;;;;;3.36;85.67;102080.53;5054194;28;1083;-73
2021/03/22 01:28:49;;;;;;;;;;;;;;;3.35;86.32;102080.81;5054168;28;1657;-73
2021/03/22 01:31:15;;;;;;;;;;;;;;;3.36;86.66;102077.00;5054408;28;2086;-73
2021/03/22 01:33:43;;;;;;;;;;;;;;;3.37;86.85;102078.63;5058549;28;920;-73
2021/03/22 01:36:15;;;;;;;;;;;;;;;3.38;87.01;102080.28;5058360;28;1906;-73
2021/03/22 01:38:42;;;;;;;;;;;;;;;3.36;87.46;102077.81;5057785;28;1361;-73
2021/03/22 01:41:19;;;;;;;;;;;;;;;3.36;88.27;102080.53;5057977;28;825;-73
2021/03/22 01:44:15;;;;;;;;;;;;;;;3.37;88.23;102078.63;5058344;28;882;-73
2021/03/22 01:46:45;;;;;;;;;;;;;;;3.39;89.03;102081.91;5048705;28;1971;-73
2021/03/22 01:49:11;;;;;;;;;;;;;;;3.38;89.25;102085.75;5058018;28;1360;-73
2021/03/22 01:51:38;;;;;;;;;;;;;;;3.35;89.50;102087.06;5057839;28;909;-73
2021/03/22 01:54:06;;;;;;;;;;;;;;;3.28;88.81;102081.03;5057958;28;784;-73
2021/03/22 01:56:40;;;;;;;;;;;;;;;3.13;89.66;102080.94;5057698;28;1953;-73
2021/03/22 01:59:06;;;;;;;;;;;;;;;2.92;89.59;102082.72;5057351;28;1397;-73
2021/03/22 02:01:32;;;;;;;;;;;;;;;2.76;90.04;102079.84;5057014;28;2097;-73
2021/03/22 02:03:57;;;;;;;;;;;;;;;2.70;90.12;102080.91;5059886;28;854;-73
2021/03/22 02:06:24;;;;;;;;;;;;;;;2.68;90.59;102076.78;5058089;28;893;-73
2021/03/22 02:08:52;;;;;;;;;;;;;;;2.68;91.13;102074.06;5056967;28;1939;-73
2021/03/22 02:11:28;;;;;;;;;;;;;;;2.75;90.89;102082.84;5057674;28;811;-72
2021/03/22 02:13:58;;;;;;;;;;;;;;;2.89;90.52;102078.59;5057626;28;2093;-73
2021/03/22 02:16:49;;;;;;;;;;;;;;;3.00;90.50;102074.84;5039324;28;2039;-73
2021/03/22 02:19:39;;;;;;;;;;;;;;;3.12;89.42;102082.84;5048629;28;1357;-73
2021/03/22 02:22:42;;;;;;;;;;;;;;;3.08;89.19;102059.91;5056438;28;1236;-73
2021/03/22 02:25:13;;;;;;;;;;;;;;;3.29;89.09;102076.41;5057432;28;892;-73
2021/03/22 02:28:00;;;;;;;;;;;;;;;3.34;88.34;102080.00;5056773;28;2198;-73
2021/03/22 02:30:51;;;;;;;;;;;;;;;3.40;88.57;102075.38;5057583;28;2113;-73
2021/03/22 02:33:43;;;;;;;;;;;;;;;3.43;87.92;102085.75;5036772;28;905;-73
2021/03/22 02:36:10;;;;;;;;;;;;;;;3.45;88.46;102080.84;5037361;28;1947;-73
2021/03/22 02:38:43;;;;;;;;;;;;;;;3.48;87.93;102076.75;5036645;28;1341;-73
2021/03/22 02:41:15;;;;;;;;;;;;;;;3.51;87.69;102078.97;5036916;28;968;-73
2021/03/22 02:43:40;;;;;;;;;;;;;;;3.54;88.21;102081.97;5055568;28;2149;-73
2021/03/22 02:46:07;;;;;;;;;;;;;;;3.57;88.04;102095.13;5056277;28;2173;-73
2021/03/22 02:48:34;;;;;;;;;;;;;;;3.58;87.28;102077.66;5056427;28;1235;-73
2021/03/22 02:51:20;;;;;;;;;;;;;;;3.57;87.36;102086.91;5057023;28;1060;-73
2021/03/22 02:53:50;;;;;;;;;;;;;;;3.50;87.39;102080.88;5056833;28;913;-73
2021/03/22 02:56:30;;;;;;;;;;;;;;;3.50;87.34;102082.81;5056404;28;2133;-73
2021/03/22 02:59:03;;;;;;;;;;;;;;;3.51;87.90;102082.53;5057170;28;1326;-73
2021/03/22 03:01:57;;;;;;;;;;;;;;;3.53;87.75;102084.97;5056516;28;1828;-73
2021/03/22 03:04:22;;;;;;;;;;;;;;;3.55;87.17;102082.81;5056676;28;840;-73
2021/03/22 03:06:53;;;;;;;;;;;;;;;3.53;87.72;102093.16;5056024;28;2038;-73
2021/03/22 03:09:21;;;;;;;;;;;;;;;3.53;87.32;102090.44;5056390;28;1301;-73
2021/03/22 03:11:47;;;;;;;;;;;;;;;3.55;87.10;102100.03;5056682;28;964;-73
2021/03/22 03:14:12;;;;;;;;;;;;;;;3.55;87.46;102099.22;5056667;28;822;-73
2021/03/22 03:16:38;;;;;;;;;;;;;;;3.60;87.04;102101.97;5055833;28;1913;-73
2021/03/22 03:19:04;;;;;;;;;;;;;;;3.60;86.44;102109.31;5059013;28;1341;-73
2021/03/22 03:21:30;;;;;;;;;;;;;;;3.58;86.78;102099.50;5061892;28;948;-73
2021/03/22 03:23:57;;;;;;;;;;;;;;;3.57;87.13;102102.50;5056483;28;1208;-73
2021/03/22 03:26:22;;;;;;;;;;;;;;;3.57;86.58;102103.31;5055944;28;887;-73
2021/03/22 03:28:48;;;;;;;;;;;;;;;3.57;86.92;102111.50;5040202;28;1366;-72
2021/03/22 03:31:13;;;;;;;;;;;;;;;3.60;86.46;102112.06;5056508;28;2182;-73
2021/03/22 03:33:39;;;;;;;;;;;;;;;3.60;86.06;102112.06;5054547;28;983;-72
2021/03/22 03:36:04;;;;;;;;;;;;;;;3.61;85.90;102106.34;5056174;28;1886;-72
2021/03/22 03:38:31;;;;;;;;;;;;;;;3.62;85.97;102110.72;5055015;28;1341;-72
2021/03/22 03:40:56;;;;;;;;;;;;;;;3.64;85.35;102108.53;5056171;28;968;-72
2021/03/22 03:43:22;;;;;;;;;;;;;;;3.64;86.25;102115.91;5055817;28;2134;-73
2021/03/22 03:45:50;;;;;;;;;;;;;;;3.65;85.33;102115.66;5038323;28;2046;-73
2021/03/22 03:48:20;;;;;;;;;;;;;;;3.66;85.49;102111.00;5056372;28;1289;-73
2021/03/22 03:50:46;;;;;;;;;;;;;;;3.66;85.01;102111.81;5056002;28;865;-73
2021/03/22 03:53:12;;;;;;;;;;;;;;;3.68;84.84;102115.09;5055863;28;795;-73
2021/03/22 03:55:38;;;;;;;;;;;;;;;3.69;85.05;102119.50;5054361;28;1961;-73
2021/03/22 03:58:04;;;;;;;;;;;;;;;3.71;84.74;102125.50;5054937;28;2025;-73
2021/03/22 04:00:33;;;;;;;;;;;;;;;3.70;84.58;102126.59;5055013;28;1826;-73
2021/03/22 04:03:29;;;;;;;;;;;;;;;3.70;84.63;102123.03;5055489;28;860;-73
2021/03/22 04:06:17;;;;;;;;;;;;;;;3.71;84.28;102133.69;5053985;28;909;-73
2021/03/22 04:08:46;;;;;;;;;;;;;;;3.72;84.74;102127.16;5055604;28;1329;-73
2021/03/22 04:11:19;;;;;;;;;;;;;;;3.73;84.79;102125.25;5056292;28;2117;-73
2021/03/22 04:13:44;;;;;;;;;;;;;;;3.73;85.01;102125.25;5055676;28;917;-73
2021/03/22 04:16:12;;;;;;;;;;;;;;;3.74;85.29;102124.16;5055160;28;2250;-73
2021/03/22 04:18:38;;;;;;;;;;;;;;;3.74;84.79;102122.25;5055023;28;1258;-73
2021/03/22 04:21:14;;;;;;;;;;;;;;;3.75;84.22;102134.00;5055151;28;806;-73
2021/03/22 04:23:45;;;;;;;;;;;;;;;3.75;84.19;102120.31;5055065;28;2042;-73
2021/03/22 04:26:11;;;;;;;;;;;;;;;3.79;83.69;102126.06;5035022;28;927;-73
2021/03/22 04:28:36;;;;;;;;;;;;;;;3.80;84.18;102128.53;5034454;28;1270;-73
2021/03/22 04:31:02;;;;;;;;;;;;;;;3.80;83.40;102125.00;5039997;28;1960;-73
2021/03/22 04:33:27;;;;;;;;;;;;;;;3.81;83.27;102127.47;5055579;28;897;-73
2021/03/22 04:35:54;;;;;;;;;;;;;;;3.81;83.80;102124.75;5054745;28;1894;-73
2021/03/22 04:38:19;;;;;;;;;;;;;;;3.81;83.88;102132.94;5054283;28;2083;-73
2021/03/22 04:40:45;;;;;;;;;;;;;;;3.81;84.24;102124.75;5055045;28;731;-73
2021/03/22 04:43:11;;;;;;;;;;;;;;;3.81;83.99;102132.94;5055093;28;841;-73
2021/03/22 04:45:36;;;;;;;;;;;;;;;3.81;84.43;102118.44;5054849;28;2038;-73
2021/03/22 04:48:03;;;;;;;;;;;;;;;3.80;84.69;102120.34;5054723;28;1278;-73
2021/03/22 04:50:28;;;;;;;;;;;;;;;3.82;83.85;102126.38;5054724;28;1000;-73
2021/03/22 04:52:54;;;;;;;;;;;;;;;3.81;84.18;102124.75;5054785;28;2055;-73
2021/03/22 04:55:24;;;;;;;;;;;;;;;3.83;83.98;102119.00;5058430;28;1929;-73
2021/03/22 04:57:49;;;;;;;;;;;;;;;3.81;84.76;102115.69;5054219;28;1043;-73
2021/03/22 05:00:18;;;;;;;;;;;;;;;3.81;84.58;102122.00;5054839;28;1321;-73
2021/03/22 05:02:43;;;;;;;;;;;;;;;3.82;84.26;102123.63;5054151;28;2087;-73
2021/03/22 05:05:09;;;;;;;;;;;;;;;3.81;84.14;102113.81;5054506;28;980;-73
2021/03/22 05:07:35;;;;;;;;;;;;;;;3.80;83.97;102114.88;5056845;28;888;-73
2021/03/22 05:10:00;;;;;;;;;;;;;;;3.79;83.95;102124.19;5058931;28;1211;-73
2021/03/22 05:12:25;;;;;;;;;;;;;;;3.80;84.28;102123.09;5058435;28;846;-73
2021/03/22 05:14:51;;;;;;;;;;;;;;;3.80;84.55;102130.47;5058540;28;2038;-73
2021/03/22 05:17:16;;;;;;;;;;;;;;;3.81;85.11;102137.56;5058123;28;2035;-73
2021/03/22 05:19:41;;;;;;;;;;;;;;;3.81;85.04;102130.22;5059015;28;1365;-73
2021/03/22 05:22:07;;;;;;;;;;;;;;;3.81;85.03;102141.13;5059128;28;1016;-73
2021/03/22 05:24:33;;;;;;;;;;;;;;;3.81;85.20;102140.28;5058325;28;938;-73
2021/03/22 05:26:59;;;;;;;;;;;;;;;3.80;86.34;102138.66;5057634;28;2080;-73
2021/03/22 05:29:26;;;;;;;;;;;;;;;3.78;86.90;102147.13;5057642;28;2038;-73
2021/03/22 05:31:52;;;;;;;;;;;;;;;3.74;86.48;102151.50;5058009;28;2022;-73
2021/03/22 05:34:18;;;;;;;;;;;;;;;3.74;86.47;102149.56;5058234;28;919;-73
2021/03/22 05:36:43;;;;;;;;;;;;;;;3.73;86.03;102141.63;5057895;28;2008;-73
2021/03/22 05:39:09;;;;;;;;;;;;;;;3.74;86.13;102152.28;5057638;28;1710;-73
2021/03/22 05:41:56;;;;;;;;;;;;;;;3.75;86.79;102156.69;5040469;28;1270;-73
2021/03/22 05:45:01;;;;;;;;;;;;;;;3.73;86.89;102161.56;5047096;28;1199;-73
2021/03/22 05:47:41;;;;;;;;;;;;;;;3.74;86.34;102160.50;5057595;28;2191;-72
2021/03/22 05:50:11;;;;;;;;;;;;;;;3.78;85.79;102171.72;5058515;28;1314;-72
2021/03/22 05:52:59;;;;;;;;;;;;;;;3.81;86.11;102160.25;5058370;28;1003;-72
2021/03/22 05:55:37;;;;;;;;;;;;;;;3.79;86.17;102162.44;5058055;28;1945;-72
2021/03/22 05:58:30;;;;;;;;;;;;;;;3.75;86.31;102164.88;5057106;28;1341;-72
2021/03/22 06:01:23;;;;;;;;;;;;;;;3.76;86.49;102162.97;5057252;28;1886;-72
2021/03/22 06:04:04;;;;;;;;;;;;;;;3.75;87.30;102164.88;5057759;28;919;-72
2021/03/22 06:06:36;;;;;;;;;;;;;;;3.74;87.68;102163.22;5057703;28;840;-72
2021/03/22 06:09:20;;;;;;;;;;;;;;;3.76;87.48;102165.69;5058003;28;1341;-72
2021/03/22 06:11:56;;;;;;;;;;;;;;;3.79;87.57;102173.38;5057876;28;835;-72
2021/03/22 06:14:45;;;;;;;;;;;;;;;3.81;87.12;102184.84;5057689;28;2251;-72
2021/03/22 06:17:19;;;;;;;;;;;;;;;3.84;86.49;102178.03;5038467;28;2124;-73
2021/03/22 06:19:53;;;;;;;;;;;;;;;3.84;87.03;102172.56;5057470;28;1424;-73
2021/03/22 06:22:29;;;;;;;;;;;;;;;3.86;86.24;102178.56;5058796;28;914;-72
2021/03/22 06:24:57;;;;;;;;;;;;;;;3.89;85.85;102176.16;5057494;28;841;-72
2021/03/22 06:27:23;;;;;;;;;;;;;;;3.94;85.95;102175.34;5056944;28;2085;-73
2021/03/22 06:29:51;;;;;;;;;;;;;;;4.00;85.73;102187.09;5057015;28;1286;-72
2021/03/22 06:32:23;;;;;;;;;;;;;;;4.04;85.45;102185.50;5056624;28;2120;-72
2021/03/22 06:34:54;;;;;;;;;;;;;;;4.03;85.88;102194.78;5056814;28;869;-72
2021/03/22 06:37:23;;;;;;;;;;;;;;;4.04;86.03;102190.97;5056546;28;1910;-72
2021/03/22 06:39:53;;;;;;;;;;;;;;;4.04;85.73;102196.44;5057572;28;1373;-72
2021/03/22 06:42:22;;;;;;;;;;;;;;;4.08;86.51;102206.59;5056691;28;2066;-72
2021/03/22 06:44:49;;;;;;;;;;;;;;;4.19;85.96;102209.34;5057091;28;787;-72
2021/03/22 06:47:14;;;;;;;;;;;;;;;4.28;85.54;102208.56;5056355;28;2168;-73
2021/03/22 06:49:45;;;;;;;;;;;;;;;4.29;85.05;102207.47;5057134;28;1274;-72
2021/03/22 06:52:17;;;;;;;;;;;;;;;4.26;85.17;102220.88;5056961;28;944;-72
2021/03/22 06:54:45;;;;;;;;;;;;;;;4.27;85.50;102212.41;5056545;28;2022;-72
2021/03/22 06:57:22;;;;;;;;;;;;;;;4.32;85.00;102212.41;5057618;28;1897;-72
2021/03/22 07:00:09;;;;;;;;;;;;;;;4.33;84.50;102214.06;5057377;28;2181;-72
2021/03/22 07:03:05;;;;;;;;;;;;;;;4.33;85.44;102215.97;5056870;28;1881;-72
2021/03/22 07:05:34;;;;;;;;;;;;;;;4.40;85.66;102223.94;5057036;28;1079;-72
2021/03/22 07:08:05;;;;;;;;;;;;;;;4.50;85.89;102224.78;5055646;28;2098;-72
2021/03/22 07:11:03;;;;;;;;;;;;;;;4.49;85.43;102227.78;5038438;28;1990;-73
2021/03/22 07:13:31;;;;;;;;;;;;;;;4.48;85.97;102223.38;5059458;28;2116;-72
2021/03/22 07:16:05;;;;;;;;;;;;;;;4.57;85.71;102216.31;5057419;28;2053;-72
2021/03/22 07:18:33;;;;;;;;;;;;;;;4.65;85.25;102221.25;5055799;28;1337;-72
2021/03/22 07:21:17;;;;;;;;;;;;;;;4.97;84.65;102222.16;5056971;28;813;-72
2021/03/22 07:23:43;;;;;;;;;;;;;;;5.28;83.77;102221.06;5056557;28;1074;-72
2021/03/22 07:26:30;;;;;;;;;;;;;;;5.36;82.59;102218.88;5056145;28;2030;-72
2021/03/22 07:29:38;;;;;;;;;;;;;;;5.29;83.17;102219.13;5055913;28;2082;-72
2021/03/22 07:32:42;;;;;;;;;;;;;;;5.14;83.77;102221.88;5026441;28;2135;-72
2021/03/22 07:35:40;;;;;;;;;;;;;;;5.00;83.88;102227.91;5055824;28;887;-72
2021/03/22 07:38:20;;;;;;;;;;;;;;;5.11;83.68;102231.47;5045734;28;1951;-72
2021/03/22 07:41:02;;;;;;;;;;;;;;;5.09;82.83;102200.81;5056737;28;960;-72
2021/03/22 07:43:46;;;;;;;;;;;;;;;5.16;82.72;102226.00;5058433;28;2155;-72
2021/03/22 07:46:47;;;;;;;;;;;;;;;5.36;82.18;102224.34;5055182;28;2054;-73
2021/03/22 07:49:35;;;;;;;;;;;;;;;5.31;81.94;102232.56;5013953;28;2187;-73
2021/03/22 07:52:31;;;;;;;;;;;;;;;5.12;82.69;102230.34;5035888;28;834;-73
2021/03/22 07:55:16;;;;;;;;;;;;;;;5.10;83.28;102235.28;5034263;28;1231;-73
2021/03/22 07:57:53;;;;;;;;;;;;;;;5.06;84.05;102240.50;5035106;28;1953;-73
2021/03/22 08:00:43;;;;;;;;;;;;;;;4.92;84.43;102244.84;5035521;28;1489;-73
2021/03/22 08:03:24;;;;;;;;;;;;;;;4.78;84.75;102239.09;5035447;28;987;-73
2021/03/22 08:06:03;;;;;;;;;;;;;;;4.63;85.01;102242.59;5053842;28;1919;-73
2021/03/22 08:08:51;;;;;;;;;;;;;;;4.64;85.18;102249.72;5037379;28;1429;-73
2021/03/22 08:11:42;;;;;;;;;;;;;;;4.74;84.90;102248.09;5055572;28;866;-73
2021/03/22 08:14:28;;;;;;;;;;;;;;;4.85;85.19;102252.50;5055607;28;1859;-74
2021/03/22 08:17:23;;;;;;;;;;;;;;;4.89;85.50;102257.16;5050952;28;2138;-73
2021/03/22 08:19:54;;;;;;;;;;;;;;;5.07;85.35;102260.50;5055349;28;1412;-73
2021/03/22 08:22:29;;;;;;;;;;;;;;;5.44;84.29;102253.94;5055207;28;844;-73
2021/03/22 08:25:33;;;;;;;;;;;;;;;6.10;81.14;102252.22;5055038;28;850;-73
2021/03/22 08:28:23;;;;;;;;;;;;;;;6.60;78.71;102269.56;5055437;28;908;-73
2021/03/22 08:31:00;;;;;;;;;;;;;;;6.57;77.66;102273.72;5054901;28;2148;-73
2021/03/22 08:33:46;;;;;;;;;;;;;;;6.26;77.95;102266.69;5054496;28;2185;-73
2021/03/22 08:36:31;;;;;;;;;;;;;;;6.17;78.75;102261.78;5054688;28;2112;-73
2021/03/22 08:39:19;;;;;;;;;;;;;;;5.98;80.80;102269.78;5054920;28;1258;-73
2021/03/22 08:42:22;;;;;;;;;;;;;;;6.02;80.63;102270.88;5053528;28;2207;-73
2021/03/22 08:44:58;;;;;;;;;;;;;;;6.07;79.98;102274.69;5055058;28;1007;-73
2021/03/22 08:47:51;;;;;;;;;;;;;;;5.99;79.95;102271.44;5053107;28;2096;-73
2021/03/22 08:50:29;;;;;;;;;;;;;;;5.92;79.70;102272.81;5054676;28;1266;-73
2021/03/22 08:52:59;;;;;;;;;;;;;;;5.88;80.32;102274.44;5037128;28;1623;-72
2021/03/22 08:55:51;;;;;;;;;;;;;;;6.01;79.66;102273.91;5054868;28;1902;-73
2021/03/22 08:58:28;;;;;;;;;;;;;;;6.45;78.61;102275.13;5054213;28;1345;-73
2021/03/22 09:00:56;;;;;;;;;;;;;;;7.00;76.09;102278.69;5054130;28;1933;-73
2021/03/22 09:03:35;;;;;;;;;;;;;;;7.65;73.22;102277.66;5053986;28;2212;-73
2021/03/22 09:06:19;;;;;;;;;;;;;;;8.76;70.44;102273.13;5053882;28;1361;-73
2021/03/22 09:08:51;;;;;;;;;;;;;;;9.50;67.03;102276.13;5056528;28;1298;-73
2021/03/22 09:11:26;;;;;;;;;;;;;;;9.90;65.30;102279.28;5054167;28;871;-73
2021/03/22 09:14:23;;;;;;;;;;;;;;;10.35;63.09;102273.22;5054368;28;849;-73
2021/03/22 09:16:53;;;;;;;;;;;;;;;9.64;64.69;102272.56;5043246;28;2117;-73
2021/03/22 09:19:21;;;;;;;;;;;;;;;9.42;65.29;102276.81;5054684;28;1325;-73
2021/03/22 09:22:10;;;;;;;;;;;;;;;9.09;66.85;102275.97;5054379;28;970;-73
2021/03/22 09:24:39;;;;;;;;;;;;;;;8.18;68.47;102282.31;5046193;28;1259;-73
2021/03/22 09:27:13;;;;;;;;;;;;;;;8.03;70.36;102278.66;5053975;28;881;-73
2021/03/22 09:29:42;;;;;;;;;;;;;;;8.25;70.39;102286.38;5054394;28;1270;-73
2021/03/22 09:34:52;;;;;;;;;;;;;;;10.99;62.63;102278.72;5040701;28;1999;-73
2021/03/22 09:37:52;;;;;;;;;;;;;;;11.70;59.77;102283.66;5054586;28;1956;-73
2021/03/22 09:40:23;;;;;;;;;;;;;;;10.96;60.07;102281.31;5053911;28;1341;-73
2021/03/22 09:43:07;;;;;;;;;;;;;;;10.51;61.41;102290.28;5053075;28;865;-73
2021/03/22 09:45:36;;;;;;;;;;;;;;;10.24;61.72;102289.09;5053758;28;1834;-73
2021/03/22 09:48:20;;;;;;;;;;;;;;;9.90;62.63;102290.31;5054994;28;1825;-73
2021/03/22 09:50:45;;;;;;;;;;;;;;;9.04;65.52;102294.19;5036570;28;818;-73
2021/03/22 09:53:21;;;;;;;;;;;;;;;8.71;66.80;102287.78;5054644;28;2111;-73
2021/03/22 09:56:00;;;;;;;;;;;;;;;8.57;67.46;102287.69;5058276;28;1956;-73
2021/03/22 09:58:39;;;;;;;;;;;;;;;8.72;67.56;102289.44;5057611;28;1389;-73
2021/03/22 10:01:07;;;;;;;;;;;;;;;8.86;67.07;102289.50;5058000;28;793;-73
2021/03/22 10:04:06;;;;;;;;;;;;;;;8.69;67.60;102294.72;5057953;28;980;-73
2021/03/22 10:06:41;;;;;;;;;;;;;;;8.55;69.12;102289.09;5058577;28;1226;-73
2021/03/22 10:09:16;;;;;;;;;;;;;;;8.38;69.47;102292.28;5058487;28;1425;-73
2021/03/22 10:11:44;;;;;;;;;;;;;;;8.14;69.24;102298.59;5057632;28;862;-73
2021/03/22 10:14:18;;;;;;;;;;;;;;;7.89;70.65;102305.19;5057534;28;896;-73
2021/03/22 10:16:48;;;;;;;;;;;;;;;8.00;70.82;102301.22;5057646;28;1898;-73
2021/03/22 10:19:22;;;;;;;;;;;;;;;8.36;71.03;102306.34;5057481;28;1703;-73
2021/03/22 10:21:53;;;;;;;;;;;;;;;8.59;69.72;102301.97;5057790;28;917;-73
2021/03/22 10:24:52;;;;;;;;;;;;;;;8.59;69.15;102299.22;5057007;28;871;-73
2021/03/22 10:27:31;;;;;;;;;;;;;;;8.43;69.75;102297.78;5056994;28;967;-73
2021/03/22 10:30:23;;;;;;;;;;;;;;;8.81;69.19;102303.34;5056674;28;1892;-73
2021/03/22 10:33:01;;;;;;;;;;;;;;;9.30;66.46;102298.50;5053844;28;2161;-73
2021/03/22 10:35:45;;;;;;;;;;;;;;;9.43;65.20;102294.16;5057245;28;1890;-73
2021/03/22 10:38:17;;;;;;;;;;;;;;;9.52;64.60;102303.41;5057059;28;1477;-73
2021/03/22 10:40:43;;;;;;;;;;;;;;;9.33;64.52;102295.97;5057070;28;833;-73
2021/03/22 10:43:24;;;;;;;;;;;;;;;9.08;66.35;102293.59;5056066;28;2361;-73
2021/03/22 10:45:50;;;;;;;;;;;;;;;8.69;66.19;102300.22;5056418;28;2045;-73
2021/03/22 10:48:26;;;;;;;;;;;;;;;8.71;67.05;102303.50;5056497;28;1254;-73
2021/03/22 10:51:00;;;;;;;;;;;;;;;8.80;66.08;102302.50;5056357;28;2213;-73
2021/03/22 10:53:25;;;;;;;;;;;;;;;8.75;66.14;102297.06;5056850;28;1004;-73
2021/03/22 10:55:50;;;;;;;;;;;;;;;9.02;66.23;102306.63;5056863;28;1897;-73
2021/03/22 10:58:33;;;;;;;;;;;;;;;9.32;65.33;102310.06;5056141;28;1392;-73
2021/03/22 11:01:03;;;;;;;;;;;;;;;9.17;65.26;102298.16;5054668;28;2047;-73
2021/03/22 11:03:30;;;;;;;;;;;;;;;9.24;65.21;102314.31;5056488;28;847;-73
2021/03/22 11:05:57;;;;;;;;;;;;;;;9.30;64.50;102320.56;5055918;28;900;-73
2021/03/22 11:08:31;;;;;;;;;;;;;;;9.43;63.57;102325.31;5056164;28;1816;-73
2021/03/22 11:11:17;;;;;;;;;;;;;;;9.63;63.53;102326.09;5058859;28;900;-73
2021/03/22 11:13:49;;;;;;;;;;;;;;;9.52;63.92;102317.19;5039975;28;2011;-73
2021/03/22 11:16:19;;;;;;;;;;;;;;;9.25;63.59;102315.13;5055926;28;2141;-73
2021/03/22 11:18:45;;;;;;;;;;;;;;;8.89;64.95;102321.94;5054551;28;2094;-73
2021/03/22 11:21:10;;;;;;;;;;;;;;;8.81;64.39;102317.13;5055929;28;983;-73
2021/03/22 11:23:42;;;;;;;;;;;;;;;8.79;63.96;102319.34;5056041;28;1933;-73
2021/03/22 11:26:25;;;;;;;;;;;;;;;8.89;63.89;102319.19;5055651;28;809;-73
2021/03/22 11:29:11;;;;;;;;;;;;;;;9.17;63.50;102316.59;5055413;28;1334;-73
2021/03/22 11:31:39;;;;;;;;;;;;;;;9.47;61.89;102315.31;5055593;28;1117;-73
2021/03/22 11:34:37;;;;;;;;;;;;;;;9.38;61.63;102311.63;5055610;28;1059;-73
2021/03/22 11:37:02;;;;;;;;;;;;;;;9.37;61.70;102315.47;5047798;28;2042;-73
2021/03/22 11:39:32;;;;;;;;;;;;;;;9.56;61.29;102318.22;5055506;28;1329;-73
2021/03/22 11:41:59;;;;;;;;;;;;;;;9.59;61.72;102315.66;5038165;28;943;-73
2021/03/22 11:44:24;;;;;;;;;;;;;;;9.46;61.29;102323.91;5055354;28;956;-73
2021/03/22 11:46:56;;;;;;;;;;;;;;;9.29;62.13;102327.19;5050965;28;1326;-73
2021/03/22 11:49:55;;;;;;;;;;;;;;;9.23;63.40;102327.25;5039484;28;1492;-73
2021/03/22 11:52:31;;;;;;;;;;;;;;;9.44;63.30;102321.44;4989015;28;2192;-73
2021/03/22 11:55:00;;;;;;;;;;;;;;;9.54;61.56;102325.97;5054572;28;2062;-73
2021/03/22 11:57:32;;;;;;;;;;;;;;;9.68;61.51;102323.25;5054802;28;2145;-73
2021/03/22 12:00:06;;;;;;;;;;;;;;;9.89;60.74;102316.25;5055673;28;2153;-73
2021/03/22 12:02:57;;;;;;;;;;;;;;;9.99;60.31;102315.28;5055145;28;996;-73
2021/03/22 12:05:25;;;;;;;;;;;;;;;10.08;59.54;102312.63;5054501;28;1959;-73
2021/03/22 12:07:50;;;;;;;;;;;;;;;10.10;59.95;102311.19;5054439;28;2149;-73
2021/03/22 12:10:17;;;;;;;;;;;;;;;10.15;59.96;102313.84;5052589;28;1980;-73
2021/03/22 12:12:43;;;;;;;;;;;;;;;10.40;59.12;102311.78;5054715;28;2082;-73
2021/03/22 12:15:10;;;;;;;;;;;;;;;10.44;58.42;102309.22;5054634;28;976;-73
2021/03/22 12:17:37;;;;;;;;;;;;;;;10.40;58.52;102313.69;5054325;28;2320;-73
2021/03/22 12:20:05;;;;;;;;;;;;;;;10.61;57.20;102314.94;5054998;28;1282;-73
2021/03/22 12:22:30;;;;;;;;;;;;;;;10.81;55.51;102310.91;5054622;28;1130;-73
2021/03/22 12:24:56;;;;;;;;;;;;;;;11.36;55.63;102307.16;5053395;28;987;-73
2021/03/22 12:27:22;;;;;;;;;;;;;;;11.36;55.37;102312.69;5054803;28;856;-73
2021/03/22 12:29:48;;;;;;;;;;;;;;;11.09;54.91;102316.34;5053063;28;1978;-73
2021/03/22 12:32:26;;;;;;;;;;;;;;;10.64;57.01;102317.06;5053169;28;2019;-73
2021/03/22 12:34:52;;;;;;;;;;;;;;;10.26;57.22;102308.13;5054318;28;2066;-73
2021/03/22 12:37:27;;;;;;;;;;;;;;;9.83;57.56;102314.72;5054048;28;2125;-73
2021/03/22 12:39:55;;;;;;;;;;;;;;;9.74;59.39;102316.53;5055034;28;1326;-73
2021/03/22 12:42:22;;;;;;;;;;;;;;;9.67;60.32;102311.44;5054805;28;911;-73
2021/03/22 12:44:48;;;;;;;;;;;;;;;9.96;59.48;102313.09;5053812;28;1981;-73
2021/03/22 12:47:32;;;;;;;;;;;;;;;10.39;58.92;102309.31;5054232;28;2050;-73
2021/03/22 12:49:59;;;;;;;;;;;;;;;11.08;56.65;102320.28;5054530;28;1334;-73
2021/03/22 12:52:25;;;;;;;;;;;;;;;11.56;54.27;102316.09;5052657;28;2605;-73
2021/03/22 12:54:50;;;;;;;;;;;;;;;11.52;53.45;102307.59;5054940;28;2112;-73
2021/03/22 12:57:21;;;;;;;;;;;;;;;11.46;54.96;102306.09;5054514;28;2068;-74
2021/03/22 12:59:48;;;;;;;;;;;;;;;11.03;55.66;102310.13;5054472;28;1484;-73
2021/03/22 13:02:19;;;;;;;;;;;;;;;10.61;56.69;102314.13;5054264;28;898;-73
2021/03/22 13:04:45;;;;;;;;;;;;;;;10.24;56.83;102305.69;5054941;28;842;-73
2021/03/22 13:07:12;;;;;;;;;;;;;;;10.39;57.70;102306.56;5035664;28;2387;-73
2021/03/22 13:09:38;;;;;;;;;;;;;;;10.40;56.56;102306.25;5053802;28;2114;-74
2021/03/22 13:12:08;;;;;;;;;;;;;;;10.24;56.89;102311.19;5053609;28;2420;-73
2021/03/22 13:14:34;;;;;;;;;;;;;;;10.20;56.98;102309.38;5054187;28;2141;-73
2021/03/22 13:17:00;;;;;;;;;;;;;;;10.37;56.46;102314.31;5036159;28;1909;-73
2021/03/22 13:19:25;;;;;;;;;;;;;;;10.91;55.34;102307.09;5054117;28;2077;-73
2021/03/22 13:21:51;;;;;;;;;;;;;;;13.13;48.51;102305.63;5054230;28;865;-73
2021/03/22 13:24:20;;;;;;;;;;;;;;;13.51;48.48;102291.13;5054178;28;936;-74
2021/03/22 13:26:46;;;;;;;;;;;;;;;12.76;48.97;102297.59;5053826;28;1983;-74
2021/03/22 13:29:12;;;;;;;;;;;;;;;12.91;49.94;102307.41;5057174;28;2111;-73
2021/03/22 13:31:38;;;;;;;;;;;;;;;12.33;50.91;102298.28;5058005;28;2157;-73